sensor_id;sensor_type;location;lat;lon;timestamp;pressure;altitude;pressure_sealevel;temperature
69785;BMP280;14177;51.520;6.764;2023-06-10T00:02:17;101102.81;;;22.72
69785;BMP280;14177;51.520;6.764;2023-06-10T00:04:45;101111.94;;;22.68
69785;BMP280;14177;51.520;6.764;2023-06-10T00:07:12;101116.50;;;22.66
69785;BMP280;14177;51.520;6.764;2023-06-10T00:09:39;101111.66;;;22.60
69785;BMP280;14177;51.520;6.764;2023-06-10T00:12:07;101106.63;;;22.57
69785;BMP280;14177;51.520;6.764;2023-06-10T00:14:37;101105.28;;;22.51
69785;BMP280;14177;51.520;6.764;2023-06-10T00:17:04;101105.41;;;22.50
69785;BMP280;14177;51.520;6.764;2023-06-10T00:19:32;101110.06;;;22.46
69785;BMP280;14177;51.520;6.764;2023-06-10T00:22:00;101110.44;;;22.42
69785;BMP280;14177;51.520;6.764;2023-06-10T00:24:27;101107.03;;;22.40
69785;BMP280;14177;51.520;6.764;2023-06-10T00:26:54;101103.75;;;22.36
69785;BMP280;14177;51.520;6.764;2023-06-10T00:29:21;101112.56;;;22.37
69785;BMP280;14177;51.520;6.764;2023-06-10T00:31:47;101105.88;;;22.31
69785;BMP280;14177;51.520;6.764;2023-06-10T00:34:15;101108.75;;;22.28
69785;BMP280;14177;51.520;6.764;2023-06-10T00:36:42;101112.34;;;22.27
69785;BMP280;14177;51.520;6.764;2023-06-10T00:39:09;101106.22;;;22.27
69785;BMP280;14177;51.520;6.764;2023-06-10T00:41:37;101120.41;;;22.26
69785;BMP280;14177;51.520;6.764;2023-06-10T00:44:04;101117.13;;;22.22
69785;BMP280;14177;51.520;6.764;2023-06-10T00:46:31;101113.88;;;22.19
69785;BMP280;14177;51.520;6.764;2023-06-10T00:48:59;101116.75;;;22.16
69785;BMP280;14177;51.520;6.764;2023-06-10T00:51:26;101127.34;;;22.16
69785;BMP280;14177;51.520;6.764;2023-06-10T00:53:54;101120.47;;;22.13
69785;BMP280;14177;51.520;6.764;2023-06-10T00:56:21;101121.75;;;22.08
69785;BMP280;14177;51.520;6.764;2023-06-10T00:58:48;101117.63;;;22.04
69785;BMP280;14177;51.520;6.764;2023-06-10T01:01:17;101115.44;;;21.98
69785;BMP280;14177;51.520;6.764;2023-06-10T01:03:44;101118.31;;;21.95
69785;BMP280;14177;51.520;6.764;2023-06-10T01:06:27;101113.69;;;21.86
69785;BMP280;14177;51.520;6.764;2023-06-10T01:09:18;101121.13;;;21.81
69785;BMP280;14177;51.520;6.764;2023-06-10T01:11:53;101117.97;;;21.76
69785;BMP280;14177;51.520;6.764;2023-06-10T01:14:26;101117.44;;;21.71
69785;BMP280;14177;51.520;6.764;2023-06-10T01:16:53;101123.16;;;21.65
69785;BMP280;14177;51.520;6.764;2023-06-10T01:19:20;101124.34;;;21.61
69785;BMP280;14177;51.520;6.764;2023-06-10T01:21:51;101125.47;;;21.57
69785;BMP280;14177;51.520;6.764;2023-06-10T01:24:18;101125.69;;;21.54
69785;BMP280;14177;51.520;6.764;2023-06-10T01:26:48;101129.50;;;21.50
69785;BMP280;14177;51.520;6.764;2023-06-10T01:29:30;101131.53;;;21.47
69785;BMP280;14177;51.520;6.764;2023-06-10T01:32:12;101138.94;;;21.42
69785;BMP280;14177;51.520;6.764;2023-06-10T01:34:42;101134.91;;;21.36
69785;BMP280;14177;51.520;6.764;2023-06-10T01:37:13;101135.13;;;21.33
69785;BMP280;14177;51.520;6.764;2023-06-10T01:39:42;101126.66;;;21.28
69785;BMP280;14177;51.520;6.764;2023-06-10T01:42:10;101132.88;;;21.27
69785;BMP280;14177;51.520;6.764;2023-06-10T01:44:39;101129.84;;;21.21
69785;BMP280;14177;51.520;6.764;2023-06-10T01:47:08;101136.28;;;21.17
69785;BMP280;14177;51.520;6.764;2023-06-10T01:49:35;101133.22;;;21.10
69785;BMP280;14177;51.520;6.764;2023-06-10T01:52:02;101125.81;;;21.03
69785;BMP280;14177;51.520;6.764;2023-06-10T01:54:32;101126.22;;;20.97
69785;BMP280;14177;51.520;6.764;2023-06-10T01:57:01;101119.47;;;20.93
69785;BMP280;14177;51.520;6.764;2023-06-10T01:59:28;101125.06;;;20.88
69785;BMP280;14177;51.520;6.764;2023-06-10T02:01:55;101136.78;;;20.85
69785;BMP280;14177;51.520;6.764;2023-06-10T02:04:22;101132.72;;;20.79
69785;BMP280;14177;51.520;6.764;2023-06-10T02:06:49;101139.06;;;20.77
69785;BMP280;14177;51.520;6.764;2023-06-10T02:09:17;101137.56;;;20.73
69785;BMP280;14177;51.520;6.764;2023-06-10T02:11:45;101137.78;;;20.70
69785;BMP280;14177;51.520;6.764;2023-06-10T02:14:12;101128.28;;;20.67
69785;BMP280;14177;51.520;6.764;2023-06-10T02:16:40;101133.78;;;20.64
69785;BMP280;14177;51.520;6.764;2023-06-10T02:19:07;101144.41;;;20.63
69785;BMP280;14177;51.520;6.764;2023-06-10T02:21:34;101147.25;;;20.60
69785;BMP280;14177;51.520;6.764;2023-06-10T02:24:01;101144.06;;;20.55
69785;BMP280;14177;51.520;6.764;2023-06-10T02:26:28;101149.56;;;20.52
69785;BMP280;14177;51.520;6.764;2023-06-10T02:28:59;101143.72;;;20.47
69785;BMP280;14177;51.520;6.764;2023-06-10T02:31:27;101144.88;;;20.43
69785;BMP280;14177;51.520;6.764;2023-06-10T02:33:56;101143.41;;;20.39
69785;BMP280;14177;51.520;6.764;2023-06-10T02:36:24;101148.13;;;20.34
69785;BMP280;14177;51.520;6.764;2023-06-10T02:38:54;101145.78;;;20.29
69785;BMP280;14177;51.520;6.764;2023-06-10T02:41:22;101144.22;;;20.27
69785;BMP280;14177;51.520;6.764;2023-06-10T02:43:51;101140.06;;;20.23
69785;BMP280;14177;51.520;6.764;2023-06-10T02:46:18;101142.72;;;20.23
69785;BMP280;14177;51.520;6.764;2023-06-10T02:48:46;101144.59;;;20.21
69785;BMP280;14177;51.520;6.764;2023-06-10T02:51:19;101149.13;;;20.19
69785;BMP280;14177;51.520;6.764;2023-06-10T02:53:48;101140.47;;;20.17
69785;BMP280;14177;51.520;6.764;2023-06-10T02:56:18;101143.31;;;20.14
69785;BMP280;14177;51.520;6.764;2023-06-10T02:58:45;101138.13;;;20.12
69785;BMP280;14177;51.520;6.764;2023-06-10T03:01:15;101142.63;;;20.10
69785;BMP280;14177;51.520;6.764;2023-06-10T03:04:08;101142.94;;;20.06
69785;BMP280;14177;51.520;6.764;2023-06-10T03:06:35;101136.91;;;20.04
69785;BMP280;14177;51.520;6.764;2023-06-10T03:09:13;101140.69;;;20.00
69785;BMP280;14177;51.520;6.764;2023-06-10T03:11:42;101140.69;;;20.00
69785;BMP280;14177;51.520;6.764;2023-06-10T03:14:09;101139.91;;;19.98
69785;BMP280;14177;51.520;6.764;2023-06-10T03:16:36;101146.13;;;19.97
69785;BMP280;14177;51.520;6.764;2023-06-10T03:19:08;101148.78;;;19.97
69785;BMP280;14177;51.520;6.764;2023-06-10T03:21:37;101153.09;;;19.98
69785;BMP280;14177;51.520;6.764;2023-06-10T03:24:05;101143.50;;;19.97
69785;BMP280;14177;51.520;6.764;2023-06-10T03:26:34;101154.81;;;19.99
69785;BMP280;14177;51.520;6.764;2023-06-10T03:29:02;101147.81;;;19.98
69785;BMP280;14177;51.520;6.764;2023-06-10T03:31:29;101156.69;;;19.97
69785;BMP280;14177;51.520;6.764;2023-06-10T03:33:56;101154.16;;;19.95
69785;BMP280;14177;51.520;6.764;2023-06-10T03:36:25;101157.81;;;19.93
69785;BMP280;14177;51.520;6.764;2023-06-10T03:38:56;101158.00;;;19.90
69785;BMP280;14177;51.520;6.764;2023-06-10T03:41:25;101155.50;;;19.88
69785;BMP280;14177;51.520;6.764;2023-06-10T03:43:53;101168.75;;;19.87
69785;BMP280;14177;51.520;6.764;2023-06-10T03:46:21;101165.09;;;19.89
69785;BMP280;14177;51.520;6.764;2023-06-10T03:48:48;101158.94;;;19.89
69785;BMP280;14177;51.520;6.764;2023-06-10T03:51:15;101173.19;;;19.86
69785;BMP280;14177;51.520;6.764;2023-06-10T03:53:42;101169.88;;;19.83
69785;BMP280;14177;51.520;6.764;2023-06-10T03:56:10;101178.72;;;19.82
69785;BMP280;14177;51.520;6.764;2023-06-10T03:58:37;101181.56;;;19.79
69785;BMP280;14177;51.520;6.764;2023-06-10T04:01:06;101175.72;;;19.74
69785;BMP280;14177;51.520;6.764;2023-06-10T04:03:35;101175.72;;;19.74
69785;BMP280;14177;51.520;6.764;2023-06-10T04:06:02;101174.69;;;19.76
69785;BMP280;14177;51.520;6.764;2023-06-10T04:08:29;101170.38;;;19.75
69785;BMP280;14177;51.520;6.764;2023-06-10T04:10:59;101167.81;;;19.74
69785;BMP280;14177;51.520;6.764;2023-06-10T04:13:26;101169.50;;;19.75
69785;BMP280;14177;51.520;6.764;2023-06-10T04:15:57;101171.13;;;19.77
69785;BMP280;14177;51.520;6.764;2023-06-10T04:18:24;101169.50;;;19.75
69785;BMP280;14177;51.520;6.764;2023-06-10T04:20:54;101179.88;;;19.78
69785;BMP280;14177;51.520;6.764;2023-06-10T04:23:22;101176.59;;;19.74
69785;BMP280;14177;51.520;6.764;2023-06-10T04:25:50;101181.75;;;19.76
69785;BMP280;14177;51.520;6.764;2023-06-10T04:28:17;101183.56;;;19.75
69785;BMP280;14177;51.520;6.764;2023-06-10T04:30:45;101185.88;;;19.80
69785;BMP280;14177;51.520;6.764;2023-06-10T04:33:13;101184.75;;;19.84
69785;BMP280;14177;51.520;6.764;2023-06-10T04:35:41;101187.31;;;19.85
69785;BMP280;14177;51.520;6.764;2023-06-10T04:38:11;101194.84;;;19.91
69785;BMP280;14177;51.520;6.764;2023-06-10T04:40:38;101191.06;;;19.95
69785;BMP280;14177;51.520;6.764;2023-06-10T04:43:07;101195.28;;;19.98
69785;BMP280;14177;51.520;6.764;2023-06-10T04:45:34;101193.34;;;20.01
69785;BMP280;14177;51.520;6.764;2023-06-10T04:48:01;101195.69;;;20.06
69785;BMP280;14177;51.520;6.764;2023-06-10T04:50:28;101201.72;;;20.08
69785;BMP280;14177;51.520;6.764;2023-06-10T04:52:55;101188.41;;;20.09
69785;BMP280;14177;51.520;6.764;2023-06-10T04:55:24;101187.38;;;20.12
69785;BMP280;14177;51.520;6.764;2023-06-10T04:57:52;101191.59;;;20.14
69785;BMP280;14177;51.520;6.764;2023-06-10T05:00:19;101188.88;;;20.16
69785;BMP280;14177;51.520;6.764;2023-06-10T05:02:46;101196.31;;;20.23
69785;BMP280;14177;51.520;6.764;2023-06-10T05:05:17;101192.72;;;20.24
69785;BMP280;14177;51.520;6.764;2023-06-10T05:07:44;101191.69;;;20.27
69785;BMP280;14177;51.520;6.764;2023-06-10T05:10:11;101193.00;;;20.34
69785;BMP280;14177;51.520;6.764;2023-06-10T05:12:41;101195.63;;;20.34
69785;BMP280;14177;51.520;6.764;2023-06-10T05:15:08;101194.50;;;20.38
69785;BMP280;14177;51.520;6.764;2023-06-10T05:17:36;101199.34;;;20.44
69785;BMP280;14177;51.520;6.764;2023-06-10T05:20:03;101198.13;;;20.49
69785;BMP280;14177;51.520;6.764;2023-06-10T05:22:30;101203.28;;;20.51
69785;BMP280;14177;51.520;6.764;2023-06-10T05:24:57;101197.72;;;20.55
69785;BMP280;14177;51.520;6.764;2023-06-10T05:27:24;101196.66;;;20.58
69785;BMP280;14177;51.520;6.764;2023-06-10T05:29:52;101200.78;;;20.62
69785;BMP280;14177;51.520;6.764;2023-06-10T05:32:19;101204.72;;;20.69
69785;BMP280;14177;51.520;6.764;2023-06-10T05:34:46;101199.03;;;20.75
69785;BMP280;14177;51.520;6.764;2023-06-10T05:37:13;101208.34;;;20.80
69785;BMP280;14177;51.520;6.764;2023-06-10T05:39:40;101209.03;;;20.84
69785;BMP280;14177;51.520;6.764;2023-06-10T05:42:07;101209.56;;;20.88
69785;BMP280;14177;51.520;6.764;2023-06-10T05:44:34;101198.69;;;20.93
69785;BMP280;14177;51.520;6.764;2023-06-10T05:47:01;101210.53;;;21.00
69785;BMP280;14177;51.520;6.764;2023-06-10T05:49:29;101211.94;;;21.05
69785;BMP280;14177;51.520;6.764;2023-06-10T05:51:56;101213.22;;;21.12
69785;BMP280;14177;51.520;6.764;2023-06-10T05:54:26;101209.19;;;21.19
69785;BMP280;14177;51.520;6.764;2023-06-10T05:56:56;101210.59;;;21.25
69785;BMP280;14177;51.520;6.764;2023-06-10T05:59:23;101196.84;;;21.32
69785;BMP280;14177;51.520;6.764;2023-06-10T06:01:50;101205.09;;;21.40
69785;BMP280;14177;51.520;6.764;2023-06-10T06:04:17;101208.91;;;21.49
69785;BMP280;14177;51.520;6.764;2023-06-10T06:06:44;101205.72;;;21.56
69785;BMP280;14177;51.520;6.764;2023-06-10T06:09:11;101204.38;;;21.63
69785;BMP280;14177;51.520;6.764;2023-06-10T06:11:38;101207.22;;;21.73
69785;BMP280;14177;51.520;6.764;2023-06-10T06:14:05;101206.56;;;21.82
69785;BMP280;14177;51.520;6.764;2023-06-10T06:16:32;101219.03;;;21.92
69785;BMP280;14177;51.520;6.764;2023-06-10T06:19:00;101207.72;;;22.03
69785;BMP280;14177;51.520;6.764;2023-06-10T06:21:26;101207.88;;;22.12
69785;BMP280;14177;51.520;6.764;2023-06-10T06:23:53;101207.97;;;22.23
69785;BMP280;14177;51.520;6.764;2023-06-10T06:26:20;101211.72;;;22.31
69785;BMP280;14177;51.520;6.764;2023-06-10T06:28:47;101215.56;;;22.40
69785;BMP280;14177;51.520;6.764;2023-06-10T06:31:15;101216.81;;;22.47
69785;BMP280;14177;51.520;6.764;2023-06-10T06:33:42;101210.34;;;22.51
69785;BMP280;14177;51.520;6.764;2023-06-10T06:36:09;101218.44;;;22.60
69785;BMP280;14177;51.520;6.764;2023-06-10T06:38:36;101214.59;;;22.64
69785;BMP280;14177;51.520;6.764;2023-06-10T06:41:03;101212.47;;;22.69
69785;BMP280;14177;51.520;6.764;2023-06-10T06:43:33;101223.22;;;22.79
69785;BMP280;14177;51.520;6.764;2023-06-10T06:46:23;101211.94;;;22.88
69785;BMP280;14177;51.520;6.764;2023-06-10T06:48:50;101221.72;;;22.98
69785;BMP280;14177;51.520;6.764;2023-06-10T06:51:17;101219.88;;;23.11
69785;BMP280;14177;51.520;6.764;2023-06-10T06:54:02;101219.81;;;23.24
69785;BMP280;14177;51.520;6.764;2023-06-10T06:57:41;101208.72;;;23.40
69785;BMP280;14177;51.520;6.764;2023-06-10T07:00:55;101220.06;;;23.53
69785;BMP280;14177;51.520;6.764;2023-06-10T07:04:37;101222.38;;;23.69
69785;BMP280;14177;51.520;6.764;2023-06-10T07:08:02;101223.53;;;23.88
69785;BMP280;14177;51.520;6.764;2023-06-10T07:12:03;101224.34;;;24.11
69785;BMP280;14177;51.520;6.764;2023-06-10T07:15:44;101221.03;;;24.29
69785;BMP280;14177;51.520;6.764;2023-06-10T07:19:18;101230.19;;;24.47
69785;BMP280;14177;51.520;6.764;2023-06-10T07:23:14;101225.09;;;24.66
69785;BMP280;14177;51.520;6.764;2023-06-10T07:31:31;101219.63;;;24.99
69785;BMP280;14177;51.520;6.764;2023-06-10T07:35:45;101217.44;;;25.04
69785;BMP280;14177;51.520;6.764;2023-06-10T07:39:11;101220.38;;;25.21
69785;BMP280;14177;51.520;6.764;2023-06-10T07:42:50;101213.66;;;25.38
69785;BMP280;14177;51.520;6.764;2023-06-10T07:46:23;101217.69;;;25.62
69785;BMP280;14177;51.520;6.764;2023-06-10T07:49:56;101217.63;;;25.73
69785;BMP280;14177;51.520;6.764;2023-06-10T07:54:00;101220.53;;;25.91
69785;BMP280;14177;51.520;6.764;2023-06-10T07:57:20;101210.78;;;26.10
69785;BMP280;14177;51.520;6.764;2023-06-10T08:00:11;101210.56;;;26.22
69785;BMP280;14177;51.520;6.764;2023-06-10T08:02:39;101214.47;;;26.37
69785;BMP280;14177;51.520;6.764;2023-06-10T08:05:06;101211.63;;;26.59
69785;BMP280;14177;51.520;6.764;2023-06-10T08:07:34;101208.97;;;26.78
69785;BMP280;14177;51.520;6.764;2023-06-10T08:10:02;101210.06;;;26.95
69785;BMP280;14177;51.520;6.764;2023-06-10T08:12:31;101218.50;;;27.00
69785;BMP280;14177;51.520;6.764;2023-06-10T08:14:58;101211.38;;;27.10
69785;BMP280;14177;51.520;6.764;2023-06-10T08:17:25;101211.06;;;27.22
69785;BMP280;14177;51.520;6.764;2023-06-10T08:19:52;101211.72;;;27.43
69785;BMP280;14177;51.520;6.764;2023-06-10T08:22:19;101212.78;;;27.59
69785;BMP280;14177;51.520;6.764;2023-06-10T08:24:46;101215.56;;;27.77
69785;BMP280;14177;51.520;6.764;2023-06-10T08:27:15;101214.50;;;27.97
69785;BMP280;14177;51.520;6.764;2023-06-10T08:29:42;101218.84;;;28.25
69785;BMP280;14177;51.520;6.764;2023-06-10T08:32:09;101220.44;;;28.45
69785;BMP280;14177;51.520;6.764;2023-06-10T08:34:36;101221.97;;;28.64
69785;BMP280;14177;51.520;6.764;2023-06-10T08:37:03;101219.41;;;28.72
69785;BMP280;14177;51.520;6.764;2023-06-10T08:39:30;101215.50;;;28.84
69785;BMP280;14177;51.520;6.764;2023-06-10T08:44:57;101217.16;;;29.20
69785;BMP280;14177;51.520;6.764;2023-06-10T08:47:29;101224.56;;;29.44
69785;BMP280;14177;51.520;6.764;2023-06-10T08:50:03;101217.47;;;29.60
69785;BMP280;14177;51.520;6.764;2023-06-10T08:52:42;101216.03;;;29.74
69785;BMP280;14177;51.520;6.764;2023-06-10T08:55:10;101224.28;;;29.80
69785;BMP280;14177;51.520;6.764;2023-06-10T08:57:38;101218.63;;;29.83
69785;BMP280;14177;51.520;6.764;2023-06-10T09:00:05;101212.56;;;30.06
69785;BMP280;14177;51.520;6.764;2023-06-10T09:02:33;101217.69;;;30.41
69785;BMP280;14177;51.520;6.764;2023-06-10T09:05:02;101214.22;;;30.65
69785;BMP280;14177;51.520;6.764;2023-06-10T09:07:31;101212.44;;;30.89
69785;BMP280;14177;51.520;6.764;2023-06-10T09:10:03;101217.66;;;31.15
69785;BMP280;14177;51.520;6.764;2023-06-10T09:12:34;101203.88;;;31.33
69785;BMP280;14177;51.520;6.764;2023-06-10T09:15:02;101205.84;;;31.55
69785;BMP280;14177;51.520;6.764;2023-06-10T09:17:29;101204.16;;;31.70
69785;BMP280;14177;51.520;6.764;2023-06-10T09:19:57;101204.31;;;31.77
69785;BMP280;14177;51.520;6.764;2023-06-10T09:22:24;101204.09;;;31.94
69785;BMP280;14177;51.520;6.764;2023-06-10T09:25:05;101205.50;;;32.21
69785;BMP280;14177;51.520;6.764;2023-06-10T09:27:50;101204.22;;;32.39
69785;BMP280;14177;51.520;6.764;2023-06-10T09:30:25;101201.78;;;32.52
69785;BMP280;14177;51.520;6.764;2023-06-10T09:32:58;101203.91;;;32.64
69785;BMP280;14177;51.520;6.764;2023-06-10T09:35:27;101205.44;;;32.59
69785;BMP280;14177;51.520;6.764;2023-06-10T09:37:59;101200.03;;;32.67
69785;BMP280;14177;51.520;6.764;2023-06-10T09:40:26;101209.13;;;32.88
69785;BMP280;14177;51.520;6.764;2023-06-10T09:42:56;101199.97;;;32.97
69785;BMP280;14177;51.520;6.764;2023-06-10T09:45:29;101203.53;;;33.12
69785;BMP280;14177;51.520;6.764;2023-06-10T09:47:56;101203.34;;;33.14
69785;BMP280;14177;51.520;6.764;2023-06-10T09:50:23;101201.78;;;33.19
69785;BMP280;14177;51.520;6.764;2023-06-10T09:52:51;101202.88;;;33.33
69785;BMP280;14177;51.520;6.764;2023-06-10T09:55:18;101187.66;;;33.40
69785;BMP280;14177;51.520;6.764;2023-06-10T09:57:49;101187.06;;;33.59
69785;BMP280;14177;51.520;6.764;2023-06-10T10:00:16;101197.53;;;33.76
69785;BMP280;14177;51.520;6.764;2023-06-10T10:02:51;101183.28;;;33.96
69785;BMP280;14177;51.520;6.764;2023-06-10T10:05:20;101177.06;;;34.10
69785;BMP280;14177;51.520;6.764;2023-06-10T10:07:48;101180.97;;;34.22
69785;BMP280;14177;51.520;6.764;2023-06-10T10:10:17;101183.13;;;34.33
69785;BMP280;14177;51.520;6.764;2023-06-10T10:12:46;101170.00;;;34.45
69785;BMP280;14177;51.520;6.764;2023-06-10T10:15:16;101183.75;;;34.50
69785;BMP280;14177;51.520;6.764;2023-06-10T10:17:51;101183.44;;;34.59
69785;BMP280;14177;51.520;6.764;2023-06-10T10:20:29;101182.53;;;34.52
69785;BMP280;14177;51.520;6.764;2023-06-10T10:22:58;101178.66;;;34.40
69785;BMP280;14177;51.520;6.764;2023-06-10T10:25:28;101174.03;;;34.34
69785;BMP280;14177;51.520;6.764;2023-06-10T10:27:59;101181.13;;;34.56
69785;BMP280;14177;51.520;6.764;2023-06-10T10:30:30;101177.41;;;34.57
69785;BMP280;14177;51.520;6.764;2023-06-10T10:33:07;101180.53;;;34.61
69785;BMP280;14177;51.520;6.764;2023-06-10T10:35:37;101171.69;;;34.88
69785;BMP280;14177;51.520;6.764;2023-06-10T10:38:04;101171.09;;;35.13
69785;BMP280;14177;51.520;6.764;2023-06-10T10:40:32;101173.09;;;35.25
69785;BMP280;14177;51.520;6.764;2023-06-10T10:43:00;101162.59;;;35.43
69785;BMP280;14177;51.520;6.764;2023-06-10T10:45:28;101162.75;;;35.63
69785;BMP280;14177;51.520;6.764;2023-06-10T10:47:55;101165.91;;;35.73
69785;BMP280;14177;51.520;6.764;2023-06-10T10:50:24;101162.38;;;35.72
69785;BMP280;14177;51.520;6.764;2023-06-10T10:52:58;101160.50;;;35.73
69785;BMP280;14177;51.520;6.764;2023-06-10T10:55:26;101161.84;;;35.90
69785;BMP280;14177;51.520;6.764;2023-06-10T10:57:58;101155.06;;;36.07
69785;BMP280;14177;51.520;6.764;2023-06-10T11:00:43;101160.44;;;36.00
69785;BMP280;14177;51.520;6.764;2023-06-10T11:03:15;101145.38;;;35.85
69785;BMP280;14177;51.520;6.764;2023-06-10T11:05:48;101150.78;;;35.85
69785;BMP280;14177;51.520;6.764;2023-06-10T11:11:24;101142.63;;;35.72
69785;BMP280;14177;51.520;6.764;2023-06-10T11:14:06;101138.31;;;35.84
69785;BMP280;14177;51.520;6.764;2023-06-10T11:16:43;101138.53;;;35.89
69785;BMP280;14177;51.520;6.764;2023-06-10T11:19:10;101136.38;;;36.12
69785;BMP280;14177;51.520;6.764;2023-06-10T11:21:59;101140.22;;;36.49
69785;BMP280;14177;51.520;6.764;2023-06-10T11:24:28;101133.16;;;36.61
69785;BMP280;14177;51.520;6.764;2023-06-10T11:27:15;101130.06;;;36.71
69785;BMP280;14177;51.520;6.764;2023-06-10T11:29:56;101139.44;;;36.68
69785;BMP280;14177;51.520;6.764;2023-06-10T11:32:30;101134.84;;;36.56
69785;BMP280;14177;51.520;6.764;2023-06-10T11:35:05;101138.53;;;36.48
69785;BMP280;14177;51.520;6.764;2023-06-10T11:37:34;101130.19;;;36.31
69785;BMP280;14177;51.520;6.764;2023-06-10T11:40:02;101136.25;;;36.39
69785;BMP280;14177;51.520;6.764;2023-06-10T11:42:29;101127.75;;;36.61
69785;BMP280;14177;51.520;6.764;2023-06-10T11:44:56;101133.59;;;36.71
69785;BMP280;14177;51.520;6.764;2023-06-10T11:47:23;101129.66;;;36.93
69785;BMP280;14177;51.520;6.764;2023-06-10T11:49:57;101130.31;;;36.95
69785;BMP280;14177;51.520;6.764;2023-06-10T11:52:29;101119.03;;;37.05
69785;BMP280;14177;51.520;6.764;2023-06-10T11:54:56;101121.94;;;37.16
69785;BMP280;14177;51.520;6.764;2023-06-10T11:57:23;101117.75;;;37.33
69785;BMP280;14177;51.520;6.764;2023-06-10T11:59:50;101122.50;;;37.57
69785;BMP280;14177;51.520;6.764;2023-06-10T12:02:18;101122.94;;;37.54
69785;BMP280;14177;51.520;6.764;2023-06-10T12:04:46;101116.22;;;37.63
69785;BMP280;14177;51.520;6.764;2023-06-10T12:07:17;101108.47;;;37.86
69785;BMP280;14177;51.520;6.764;2023-06-10T12:09:45;101110.56;;;37.84
69785;BMP280;14177;51.520;6.764;2023-06-10T12:12:12;101112.50;;;37.38
69785;BMP280;14177;51.520;6.764;2023-06-10T12:14:56;101106.31;;;37.25
69785;BMP280;14177;51.520;6.764;2023-06-10T12:17:36;101102.78;;;37.18
69785;BMP280;14177;51.520;6.764;2023-06-10T12:20:06;101099.66;;;37.21
69785;BMP280;14177;51.520;6.764;2023-06-10T12:22:37;101102.34;;;37.40
69785;BMP280;14177;51.520;6.764;2023-06-10T12:25:05;101100.47;;;37.41
69785;BMP280;14177;51.520;6.764;2023-06-10T12:27:35;101096.06;;;37.46
69785;BMP280;14177;51.520;6.764;2023-06-10T12:30:05;101095.06;;;37.41
69785;BMP280;14177;51.520;6.764;2023-06-10T12:32:44;101085.84;;;37.35
69785;BMP280;14177;51.520;6.764;2023-06-10T12:35:16;101089.84;;;37.26
69785;BMP280;14177;51.520;6.764;2023-06-10T12:38:03;101089.88;;;37.13
69785;BMP280;14177;51.520;6.764;2023-06-10T12:40:36;101093.22;;;37.09
69785;BMP280;14177;51.520;6.764;2023-06-10T12:43:03;101076.06;;;37.34
69785;BMP280;14177;51.520;6.764;2023-06-10T12:45:32;101096.19;;;37.71
69785;BMP280;14177;51.520;6.764;2023-06-10T12:48:10;101087.66;;;37.61
69785;BMP280;14177;51.520;6.764;2023-06-10T12:50:42;101078.78;;;37.34
69785;BMP280;14177;51.520;6.764;2023-06-10T12:53:10;101078.56;;;37.36
69785;BMP280;14177;51.520;6.764;2023-06-10T12:55:41;101078.16;;;37.32
69785;BMP280;14177;51.520;6.764;2023-06-10T12:58:08;101081.03;;;37.50
69785;BMP280;14177;51.520;6.764;2023-06-10T13:00:43;101079.03;;;37.83
69785;BMP280;14177;51.520;6.764;2023-06-10T13:03:10;101077.78;;;37.85
69785;BMP280;14177;51.520;6.764;2023-06-10T13:05:37;101080.56;;;38.10
69785;BMP280;14177;51.520;6.764;2023-06-10T13:08:07;101085.34;;;38.14
69785;BMP280;14177;51.520;6.764;2023-06-10T13:10:34;101064.22;;;38.23
69785;BMP280;14177;51.520;6.764;2023-06-10T13:13:03;101079.22;;;38.32
69785;BMP280;14177;51.520;6.764;2023-06-10T13:15:57;101080.25;;;38.31
69785;BMP280;14177;51.520;6.764;2023-06-10T13:18:34;101073.97;;;38.30
69785;BMP280;14177;51.520;6.764;2023-06-10T13:21:22;101070.75;;;38.09
69785;BMP280;14177;51.520;6.764;2023-06-10T13:24:24;101075.16;;;38.10
69785;BMP280;14177;51.520;6.764;2023-06-10T13:27:40;101054.25;;;38.17
69785;BMP280;14177;51.520;6.764;2023-06-10T13:30:14;101069.09;;;38.08
69785;BMP280;14177;51.520;6.764;2023-06-10T13:32:49;101066.22;;;38.03
69785;BMP280;14177;51.520;6.764;2023-06-10T13:35:46;101061.53;;;37.79
69785;BMP280;14177;51.520;6.764;2023-06-10T13:38:36;101063.44;;;37.72
69785;BMP280;14177;51.520;6.764;2023-06-10T13:41:20;101058.41;;;37.75
69785;BMP280;14177;51.520;6.764;2023-06-10T13:43:59;101064.53;;;38.02
69785;BMP280;14177;51.520;6.764;2023-06-10T13:46:35;101048.00;;;38.16
69785;BMP280;14177;51.520;6.764;2023-06-10T13:49:04;101051.97;;;38.14
69785;BMP280;14177;51.520;6.764;2023-06-10T13:51:33;101045.31;;;38.10
69785;BMP280;14177;51.520;6.764;2023-06-10T13:54:10;101045.06;;;37.87
69785;BMP280;14177;51.520;6.764;2023-06-10T13:56:51;101042.56;;;37.79
69785;BMP280;14177;51.520;6.764;2023-06-10T13:59:28;101044.06;;;37.75
69785;BMP280;14177;51.520;6.764;2023-06-10T14:02:20;101050.47;;;37.24
69785;BMP280;14177;51.520;6.764;2023-06-10T14:05:07;101039.50;;;36.73
69785;BMP280;14177;51.520;6.764;2023-06-10T14:07:42;101034.53;;;36.64
69785;BMP280;14177;51.520;6.764;2023-06-10T14:10:18;101035.34;;;36.77
69785;BMP280;14177;51.520;6.764;2023-06-10T14:13:21;101040.31;;;37.13
69785;BMP280;14177;51.520;6.764;2023-06-10T14:16:07;101043.59;;;37.21
69785;BMP280;14177;51.520;6.764;2023-06-10T14:18:43;101029.59;;;37.37
69785;BMP280;14177;51.520;6.764;2023-06-10T14:21:25;101025.19;;;37.49
69785;BMP280;14177;51.520;6.764;2023-06-10T14:24:24;101032.28;;;37.50
69785;BMP280;14177;51.520;6.764;2023-06-10T14:27:39;101025.19;;;37.49
69785;BMP280;14177;51.520;6.764;2023-06-10T14:37:06;101024.75;;;36.56
69785;BMP280;14177;51.520;6.764;2023-06-10T14:39:52;101032.63;;;36.90
69785;BMP280;14177;51.520;6.764;2023-06-10T14:42:34;101034.88;;;37.13
69785;BMP280;14177;51.520;6.764;2023-06-10T14:45:40;101026.88;;;37.37
69785;BMP280;14177;51.520;6.764;2023-06-10T14:52:12;101013.69;;;37.03
69785;BMP280;14177;51.520;6.764;2023-06-10T14:55:22;101010.56;;;37.06
69785;BMP280;14177;51.520;6.764;2023-06-10T14:58:41;101018.03;;;36.91
69785;BMP280;14177;51.520;6.764;2023-06-10T15:01:25;101009.91;;;37.11